Time;durP1;ratioP1;P1;durP2;ratioP2;P2;SDS_P1;SDS_P2;PMS_P1;PMS_P2;Temp;Humidity;BMP_temperature;BMP_pressure;BME280_temperature;BME280_humidity;BME280_pressure;Samples;Min_cycle;Max_cycle;Signal;HPM_P1;HPM_P2
2021/07/14 00:01:23;;;;;;;3.50;2.10;;;17.40;99.90;;;17.32;95.27;97657.50;5110825;28;20624;-70
2021/07/14 00:03:51;;;;;;;7.97;2.23;;;17.40;99.90;;;17.34;95.47;97649.44;5109725;28;20663;-70
2021/07/14 00:07:10;;;;;;;4.60;2.37;;;17.40;99.90;;;17.37;96.17;97647.28;5073458;27;20859;-69
2021/07/14 00:09:39;;;;;;;5.50;2.50;;;17.50;99.90;;;17.39;95.59;97633.97;5069094;28;20719;-69
2021/07/14 00:12:08;;;;;;;4.80;2.50;;;17.40;99.90;;;17.38;95.93;97617.31;5068770;28;20665;-69
2021/07/14 00:17:28;;;;;;;3.97;2.50;;;17.40;99.90;;;17.39;96.28;97618.94;5059794;28;20688;-69
2021/07/14 00:22:44;;;;;;;4.40;2.60;;;17.40;99.90;;;17.42;96.48;97594.09;5073314;28;20731;-69
2021/07/14 00:25:14;;;;;;;6.40;3.90;;;17.50;99.90;;;17.40;95.50;97594.25;5070410;28;21328;-69
2021/07/14 00:27:44;;;;;;;7.07;2.50;;;17.50;99.90;;;17.39;95.33;97592.59;5074193;28;20725;-69
2021/07/14 00:30:22;;;;;;;4.03;2.73;;;17.40;99.90;;;17.40;95.40;97602.16;5077193;28;20639;-69
2021/07/14 00:32:51;;;;;;;10.50;2.93;;;17.40;99.90;;;17.40;96.01;97615.34;5068894;28;20624;-69
2021/07/14 00:35:20;;;;;;;5.60;2.57;;;17.50;99.90;;;17.42;95.77;97620.47;5059429;28;20719;-69
2021/07/14 00:37:50;;;;;;;3.50;3.20;;;17.50;99.90;;;17.43;95.62;97622.13;5065520;28;20703;-69
2021/07/14 00:40:19;;;;;;;4.30;2.50;;;17.50;99.90;;;17.43;95.86;97616.84;5068606;28;20728;-69
2021/07/14 00:42:47;;;;;;;6.40;2.80;;;17.50;99.90;;;17.42;95.80;97602.81;5067619;28;20655;-69
2021/07/14 00:45:16;;;;;;;4.97;3.40;;;17.50;99.90;;;17.38;95.59;97590.09;5070619;28;21516;-69
2021/07/14 00:47:49;;;;;;;4.70;3.27;;;17.40;99.90;;;17.38;95.36;97582.19;5069232;28;20718;-69
2021/07/14 00:50:18;;;;;;;6.07;2.90;;;17.40;99.90;;;17.33;95.69;97592.41;5066453;28;20991;-69
2021/07/14 00:52:46;;;;;;;4.10;2.93;;;17.40;99.90;;;17.32;95.97;97593.38;5069123;28;20995;-69
2021/07/14 00:55:16;;;;;;;3.30;2.90;;;17.40;99.90;;;17.33;96.17;97592.41;5063359;28;20710;-69
2021/07/14 00:57:46;;;;;;;6.83;3.30;;;17.40;99.90;;;17.30;96.30;97584.81;5071844;28;20732;-69
2021/07/14 01:00:15;;;;;;;6.47;3.30;;;17.30;99.90;;;17.28;96.31;97570.97;5069494;28;20630;-69
2021/07/14 01:02:44;;;;;;;4.87;3.80;;;17.30;99.90;;;17.27;96.35;97571.94;5065254;28;20720;-69
2021/07/14 01:05:17;;;;;;;5.30;3.07;;;17.30;99.90;;;17.26;96.72;97563.22;5050123;28;20649;-69
2021/07/14 01:07:53;;;;;;;4.93;3.00;;;17.30;99.90;;;17.25;95.96;97568.66;5063054;28;21043;-69
2021/07/14 01:10:26;;;;;;;4.93;2.90;;;17.30;99.90;;;17.20;96.31;97586.69;5069793;28;20628;-69
2021/07/14 01:13:02;;;;;;;4.23;2.80;;;17.30;99.90;;;17.12;95.57;97600.69;5069082;28;20668;-69
2021/07/14 01:15:38;;;;;;;6.60;3.20;;;17.30;99.90;;;17.09;94.83;97615.97;5068676;28;20633;-69
2021/07/14 01:18:18;;;;;;;5.13;3.40;;;17.30;99.90;;;17.06;95.21;97621.53;5065244;28;20991;-69
2021/07/14 01:20:59;;;;;;;5.53;3.10;;;17.20;99.90;;;17.02;94.95;97643.94;5060754;28;21404;-69
2021/07/14 01:23:45;;;;;;;3.90;3.13;;;17.10;99.90;;;16.97;94.59;97656.72;5056500;28;21057;-69
2021/07/14 01:26:31;;;;;;;4.40;3.37;;;17.10;99.90;;;16.94;96.25;97666.75;5057712;28;20748;-69
2021/07/14 01:29:06;;;;;;;3.33;3.03;;;17.10;99.90;;;16.92;96.06;97679.28;5052709;28;20660;-69
2021/07/14 01:31:39;;;;;;;8.97;3.83;;;17.10;99.90;;;16.93;95.32;97684.38;5054249;28;21036;-69
2021/07/14 01:34:12;;;;;;;4.30;3.57;;;17.00;99.90;;;16.94;96.03;97685.19;5055058;28;21188;-69
2021/07/14 01:36:45;;;;;;;5.20;3.67;;;17.00;99.90;;;16.94;96.64;97670.22;5053566;28;20657;-69
2021/07/14 01:39:15;;;;;;;6.73;3.13;;;17.00;99.90;;;16.92;96.35;97650.28;5053157;28;21078;-69
2021/07/14 01:41:47;;;;;;;3.40;2.93;;;17.00;99.90;;;16.90;95.50;97652.22;5051829;28;20630;-69
2021/07/14 01:44:19;;;;;;;4.03;2.60;;;17.00;99.90;;;16.87;95.80;97645.47;5059078;28;20720;-69
2021/07/14 01:46:48;;;;;;;7.43;3.03;;;17.00;99.90;;;16.83;95.95;97651.22;5053287;28;20663;-69
2021/07/14 01:49:21;;;;;;;7.80;3.10;;;16.90;99.90;;;16.76;94.23;97655.44;5052095;28;22862;-69
2021/07/14 01:52:00;;;;;;;6.20;3.60;;;16.90;99.90;;;16.70;94.89;97656.88;5070059;28;20641;-69
2021/07/14 01:54:30;;;;;;;6.37;3.03;;;16.80;99.90;;;16.69;94.62;97662.31;5056566;28;20632;-69
2021/07/14 01:56:59;;;;;;;4.00;2.80;;;16.80;99.90;;;16.66;94.54;97660.78;5055295;28;20661;-69
2021/07/14 01:59:33;;;;;;;5.50;3.00;;;16.80;99.90;;;16.63;95.62;97661.09;5056004;28;21191;-69
2021/07/14 02:02:04;;;;;;;4.47;2.90;;;16.80;99.90;;;16.63;94.78;97666.34;5064461;28;20710;-69
2021/07/14 02:04:34;;;;;;;4.10;2.83;;;16.80;99.90;;;16.62;94.45;97669.16;5050624;28;20723;-69
2021/07/14 02:07:11;;;;;;;3.50;3.20;;;16.70;99.90;;;16.62;94.68;97680.50;5053261;28;20763;-69
2021/07/14 02:09:43;;;;;;;8.33;2.87;;;16.70;99.90;;;16.62;95.71;97674.41;5056684;28;21000;-69
2021/07/14 02:12:17;;;;;;;5.43;2.97;;;16.70;99.90;;;16.62;94.84;97669.97;5053248;28;20636;-69
2021/07/14 02:14:50;;;;;;;6.73;2.90;;;16.70;99.90;;;16.61;95.07;97668.31;5051269;28;20754;-69
2021/07/14 02:17:23;;;;;;;6.03;2.97;;;16.70;99.90;;;16.61;95.43;97665.69;5055442;28;20626;-69
2021/07/14 02:19:56;;;;;;;2.73;2.53;;;16.70;99.90;;;16.61;95.49;97649.03;5063221;28;20661;-69
2021/07/14 02:22:27;;;;;;;4.50;2.87;;;16.80;99.90;;;16.62;95.48;97645.44;5062029;28;20637;-69
2021/07/14 02:24:56;;;;;;;4.13;2.50;;;16.70;99.90;;;16.61;95.96;97631.47;5053177;28;20641;-69
2021/07/14 02:27:25;;;;;;;12.23;2.70;;;16.70;99.90;;;16.58;96.36;97639.66;5058635;28;20767;-69
2021/07/14 02:29:55;;;;;;;8.13;3.17;;;16.70;99.90;;;16.56;94.64;97633.69;5053933;28;20637;-69
2021/07/14 02:32:24;;;;;;;7.20;2.93;;;16.70;99.90;;;16.55;95.41;97632.06;5056988;28;21011;-69
2021/07/14 02:34:55;;;;;;;3.23;2.77;;;16.70;99.90;;;16.53;94.58;97627.94;5053770;28;20654;-69
2021/07/14 02:37:34;;;;;;;3.90;2.57;;;16.70;99.90;;;16.54;94.97;97632.22;5051599;28;20678;-69
2021/07/14 02:40:05;;;;;;;4.10;2.70;;;16.60;99.90;;;16.51;95.57;97625.44;5049374;28;20659;-69
2021/07/14 02:42:40;;;;;;;4.40;2.90;;;16.60;99.90;;;16.51;94.31;97622.00;5057212;28;20631;-69
2021/07/14 02:45:11;;;;;;;4.03;3.43;;;16.60;99.90;;;16.50;94.41;97631.69;5059375;28;20667;-69
2021/07/14 02:47:42;;;;;;;4.47;2.83;;;16.60;99.90;;;16.50;95.31;97627.41;5054611;28;20654;-69
2021/07/14 02:50:17;;;;;;;5.87;3.40;;;16.60;99.90;;;16.46;94.36;97642.66;5055550;28;20667;-69
2021/07/14 02:52:49;;;;;;;3.00;2.70;;;16.60;99.90;;;16.42;94.01;97643.97;5053107;28;20724;-69
2021/07/14 02:55:22;;;;;;;5.03;3.67;;;16.60;99.90;;;16.38;95.22;97639.16;5057323;28;20694;-70
2021/07/14 02:57:55;;;;;;;7.93;3.10;;;16.50;99.90;;;16.35;94.74;97645.53;5055502;28;21791;-69
2021/07/14 03:00:26;;;;;;;4.70;2.83;;;16.60;99.90;;;16.35;93.76;97644.72;5052997;28;21075;-69
2021/07/14 03:02:55;;;;;;;6.63;3.50;;;16.50;99.90;;;16.35;93.75;97647.34;5055589;28;21294;-69
2021/07/14 03:05:26;;;;;;;5.30;2.83;;;16.50;99.90;;;16.33;94.94;97646.69;5051736;28;20743;-69
2021/07/14 03:07:57;;;;;;;4.60;2.93;;;16.50;99.90;;;16.27;95.11;97647.28;5052864;28;20673;-69
2021/07/14 03:10:27;;;;;;;6.50;3.10;;;16.50;99.90;;;16.25;95.33;97649.22;5059495;28;21227;-69
2021/07/14 03:13:02;;;;;;;5.83;3.40;;;16.40;99.90;;;16.30;95.66;97653.06;5055009;28;20728;-69
2021/07/14 03:15:33;;;;;;;3.73;3.10;;;16.40;99.90;;;16.29;95.67;97650.59;5056494;28;20634;-70
2021/07/14 03:18:03;;;;;;;5.53;2.90;;;16.40;99.90;;;16.27;93.50;97637.56;5049276;28;20694;-70
2021/07/14 03:20:32;;;;;;;8.57;2.93;;;16.40;99.90;;;16.24;95.41;97623.91;5052622;28;20637;-69
2021/07/14 03:23:03;;;;;;;4.70;2.93;;;16.30;99.90;;;16.23;95.34;97620.41;5053553;28;20617;-69
2021/07/14 03:25:32;;;;;;;3.40;3.10;;;16.30;99.90;;;16.22;94.82;97620.56;5058942;28;20636;-69
2021/07/14 03:28:02;;;;;;;5.33;3.27;;;16.30;99.90;;;16.22;94.81;97621.41;5051509;28;20671;-69
2021/07/14 03:30:32;;;;;;;4.10;2.87;;;16.30;99.90;;;16.20;94.38;97639.09;5049762;28;20665;-69
2021/07/14 03:33:01;;;;;;;4.10;2.97;;;16.30;99.90;;;16.15;93.67;97643.19;5050986;28;20625;-69
2021/07/14 03:35:30;;;;;;;3.83;2.97;;;16.30;99.90;;;16.14;93.71;97638.88;5050488;28;20640;-69
2021/07/14 03:38:02;;;;;;;5.70;3.27;;;16.30;99.90;;;16.14;93.75;97638.88;5049328;28;20628;-70
2021/07/14 03:40:33;;;;;;;5.63;3.00;;;16.30;99.90;;;16.15;94.81;97643.19;5052552;28;20662;-69
2021/07/14 03:43:04;;;;;;;3.63;3.10;;;16.30;99.90;;;16.12;95.00;97644.28;5050970;28;20620;-69
2021/07/14 03:45:36;;;;;;;6.77;2.87;;;16.30;99.90;;;16.10;93.17;97658.56;5054468;28;20632;-69
2021/07/14 03:48:07;;;;;;;4.43;3.10;;;16.20;99.90;;;16.06;94.99;97659.88;5052503;28;20660;-69
2021/07/14 03:50:38;;;;;;;5.07;4.20;;;16.20;99.90;;;16.02;95.34;97651.41;5054510;28;20628;-69
2021/07/14 03:53:07;;;;;;;4.50;3.23;;;16.20;99.90;;;16.06;93.24;97651.97;5049439;28;21000;-69
2021/07/14 03:55:36;;;;;;;5.00;3.30;;;16.20;99.90;;;16.09;93.29;97656.94;5051677;28;20641;-69
2021/07/14 03:58:05;;;;;;;3.97;3.57;;;16.20;99.90;;;16.08;94.99;97642.94;5054731;28;20992;-69
2021/07/14 04:00:35;;;;;;;5.87;3.47;;;16.10;99.90;;;16.07;95.71;97643.06;5034250;28;22331;-69
2021/07/14 04:03:04;;;;;;;4.83;2.70;;;16.10;99.90;;;16.09;95.62;97654.31;5053006;28;20640;-69
2021/07/14 04:05:39;;;;;;;11.37;3.40;;;16.20;99.90;;;16.10;95.07;97648.03;5054920;28;21104;-69
2021/07/14 04:08:08;;;;;;;5.63;2.90;;;16.20;99.90;;;16.11;95.58;97666.31;5049664;28;21212;-69
2021/07/14 04:10:36;;;;;;;4.00;2.90;;;16.20;99.90;;;16.13;95.57;97666.16;5054094;28;20620;-69
2021/07/14 04:13:07;;;;;;;4.20;3.17;;;16.20;99.90;;;16.16;95.52;97661.47;5047650;28;21256;-69
2021/07/14 04:15:37;;;;;;;4.73;2.90;;;16.20;99.90;;;16.18;95.95;97661.31;5059741;28;20643;-69
2021/07/14 04:18:08;;;;;;;4.23;3.30;;;16.30;99.90;;;16.20;96.54;97656.72;5050933;28;20635;-72
2021/07/14 04:20:38;;;;;;;4.50;3.60;;;16.30;99.90;;;16.21;95.83;97656.56;5043231;28;20718;-70
2021/07/14 04:23:07;;;;;;;4.43;3.30;;;16.30;99.90;;;16.23;96.87;97659.88;5053648;28;20663;-69
2021/07/14 04:25:36;;;;;;;5.23;3.97;;;16.30;99.90;;;16.26;96.47;97671.94;5060347;28;20672;-69
2021/07/14 04:28:06;;;;;;;4.23;3.67;;;16.40;99.90;;;16.29;95.14;97669.81;5051488;28;20763;-69
2021/07/14 04:30:35;;;;;;;5.30;4.23;;;16.40;99.90;;;16.31;95.44;97665.25;5052638;28;21169;-69
2021/07/14 04:33:05;;;;;;;4.70;4.07;;;16.40;99.90;;;16.34;96.38;97669.38;5057126;28;20634;-69
2021/07/14 04:35:34;;;;;;;4.53;3.20;;;16.40;99.90;;;16.34;96.60;97666.75;5039244;28;20784;-69
2021/07/14 04:38:03;;;;;;;4.90;3.77;;;16.40;99.90;;;16.35;95.17;97660.50;5058766;28;20651;-69
2021/07/14 04:40:31;;;;;;;5.90;3.63;;;16.40;99.90;;;16.36;95.00;97662.19;5050823;28;20628;-69
2021/07/14 04:43:00;;;;;;;4.90;3.77;;;16.40;99.90;;;16.38;96.59;97652.31;5049796;28;20672;-69
2021/07/14 04:45:28;;;;;;;7.30;4.70;;;16.50;99.90;;;16.38;96.01;97657.56;5050984;28;20735;-69
2021/07/14 04:47:57;;;;;;;5.47;4.80;;;16.50;99.90;;;16.38;95.88;97657.56;5051271;28;20695;-69
2021/07/14 04:50:27;;;;;;;5.17;4.00;;;16.50;99.90;;;16.39;96.71;97665.31;5049979;28;20637;-69
2021/07/14 04:52:56;;;;;;;5.43;4.50;;;16.50;99.90;;;16.41;95.10;97657.28;5055812;28;20687;-69
2021/07/14 04:55:24;;;;;;;5.60;4.43;;;16.50;99.90;;;16.42;96.82;97641.31;5054512;28;20645;-69
2021/07/14 04:57:53;;;;;;;5.87;4.47;;;16.50;99.90;;;16.46;95.94;97640.03;5039205;28;20659;-69
2021/07/14 05:00:22;;;;;;;5.20;4.40;;;16.50;99.90;;;16.49;96.52;97641.53;5054933;28;20739;-69
2021/07/14 05:02:51;;;;;;;5.37;4.43;;;16.60;99.90;;;16.49;95.55;97639.72;5054871;28;20636;-69
2021/07/14 05:05:20;;;;;;;5.20;4.70;;;16.60;99.90;;;16.50;95.04;97645.84;5057097;28;20673;-70
2021/07/14 05:07:50;;;;;;;11.57;4.50;;;16.60;99.90;;;16.50;95.51;97641.38;5062196;28;20678;-69
2021/07/14 05:10:24;;;;;;;5.07;4.40;;;16.60;99.90;;;16.52;94.86;97648.16;5055545;28;20635;-69
2021/07/14 05:12:53;;;;;;;4.30;3.80;;;16.60;99.90;;;16.55;94.63;97649.66;5055735;28;21054;-69
2021/07/14 05:15:21;;;;;;;4.70;3.80;;;16.60;99.90;;;16.57;95.54;97645.09;5052105;28;20676;-70
2021/07/14 05:17:50;;;;;;;4.37;3.73;;;16.60;99.90;;;16.63;95.12;97647.09;5055004;28;20636;-69
2021/07/14 05:20:19;;;;;;;4.47;3.80;;;16.70;99.90;;;16.67;95.78;97640.53;5055046;28;20686;-69
2021/07/14 05:22:49;;;;;;;4.23;3.80;;;16.70;99.90;;;16.72;95.44;97643.56;5056247;28;20643;-69
2021/07/14 05:25:17;;;;;;;5.13;4.03;;;16.70;99.90;;;16.76;94.78;97650.16;5053826;28;20730;-69
2021/07/14 05:27:47;;;;;;;4.30;3.90;;;16.80;99.90;;;16.79;96.08;97640.13;5055886;28;20631;-69
2021/07/14 05:30:17;;;;;;;4.80;3.73;;;16.90;99.90;;;16.85;95.58;97641.34;5056163;28;21091;-73
2021/07/14 05:32:46;;;;;;;5.67;3.93;;;16.90;99.90;;;16.88;94.71;97635.75;5052700;28;20636;-69
2021/07/14 05:35:14;;;;;;;4.60;4.10;;;16.90;99.90;;;16.93;96.31;97646.66;5054328;28;21182;-70
2021/07/14 05:37:43;;;;;;;4.50;4.10;;;17.00;99.90;;;16.96;95.08;97657.72;5058762;28;20645;-69
2021/07/14 05:40:14;;;;;;;5.87;4.00;;;17.00;99.90;;;16.99;95.71;97652.16;5041856;28;21068;-69
2021/07/14 05:42:42;;;;;;;3.50;2.77;;;17.00;99.90;;;17.00;94.80;97653.78;5064426;28;20664;-69
2021/07/14 05:45:12;;;;;;;4.93;3.80;;;17.00;99.90;;;17.03;95.95;97658.75;5053935;28;20640;-69
2021/07/14 05:47:40;;;;;;;7.40;4.10;;;17.10;99.90;;;17.04;95.70;97655.97;5053746;28;20633;-69
2021/07/14 05:50:10;;;;;;;4.07;3.70;;;17.10;99.90;;;17.08;95.16;97661.78;5053858;28;20716;-69
2021/07/14 05:52:39;;;;;;;4.37;3.60;;;17.10;99.90;;;17.09;94.83;97661.63;5053760;28;20658;-69
2021/07/14 05:55:10;;;;;;;3.83;3.20;;;17.20;99.90;;;17.13;95.13;97664.75;5055021;28;20712;-69
2021/07/14 05:57:41;;;;;;;5.30;3.50;;;17.20;99.90;;;17.16;94.48;97667.91;5056536;28;21191;-69
2021/07/14 06:00:12;;;;;;;5.10;3.63;;;17.30;99.90;;;17.21;94.51;97662.19;5053707;28;20659;-69
2021/07/14 06:02:40;;;;;;;7.60;3.77;;;17.20;99.90;;;17.21;94.54;97668.28;5062203;28;20618;-69
2021/07/14 06:05:11;;;;;;;5.73;4.40;;;17.30;99.90;;;17.24;94.30;97672.44;5066119;28;20744;-69
2021/07/14 06:07:39;;;;;;;6.73;3.97;;;17.30;99.90;;;17.26;94.96;97666.03;5056279;28;21351;-69
2021/07/14 06:10:10;;;;;;;6.00;4.40;;;17.30;99.90;;;17.31;96.06;97668.19;5059118;28;21270;-70
2021/07/14 06:12:40;;;;;;;4.77;4.37;;;17.30;99.90;;;17.31;95.63;97655.84;5055487;28;20676;-70
2021/07/14 06:15:10;;;;;;;5.63;4.80;;;17.40;99.90;;;17.34;95.75;97662.63;5070391;28;20664;-69
2021/07/14 06:17:39;;;;;;;6.50;4.87;;;17.40;99.90;;;17.36;95.98;97664.09;5051050;28;21165;-69
2021/07/14 06:20:09;;;;;;;7.07;5.10;;;17.40;99.90;;;17.34;95.42;97670.53;5054508;28;20624;-69
2021/07/14 06:22:38;;;;;;;7.70;5.70;;;17.40;99.90;;;17.29;96.15;97668.34;5051337;28;21230;-69
2021/07/14 06:25:09;;;;;;;6.57;5.27;;;17.30;99.90;;;17.31;95.96;97663.75;5052614;28;20626;-70
2021/07/14 06:27:44;;;;;;;6.90;4.60;;;17.40;99.90;;;17.32;95.56;97661.91;5061940;28;20693;-69
2021/07/14 06:30:15;;;;;;;6.93;4.50;;;17.40;99.90;;;17.34;95.87;97659.97;5046351;28;21099;-69
2021/07/14 06:32:51;;;;;;;6.00;5.40;;;17.40;99.90;;;17.35;96.00;97665.09;5056539;28;20618;-69
2021/07/14 06:35:21;;;;;;;6.30;5.27;;;17.40;99.90;;;17.38;95.17;97658.66;5056574;28;20711;-69
2021/07/14 06:37:51;;;;;;;6.33;5.23;;;17.40;99.90;;;17.39;95.37;97653.22;5059552;28;20616;-69
2021/07/14 06:40:20;;;;;;;5.90;4.93;;;17.40;99.90;;;17.42;95.80;97660.00;5052759;28;20686;-69
2021/07/14 06:42:50;;;;;;;7.63;5.40;;;17.40;99.90;;;17.44;95.44;97658.88;5060989;28;21058;-69
2021/07/14 06:45:23;;;;;;;5.10;4.60;;;17.50;99.90;;;17.46;95.92;97658.72;5061627;28;21186;-69
2021/07/14 06:47:56;;;;;;;5.40;4.60;;;17.50;99.90;;;17.50;95.48;97659.06;5060241;28;20646;-69
2021/07/14 06:50:25;;;;;;;4.50;4.03;;;17.50;99.90;;;17.52;95.51;97651.00;5055902;28;20997;-69
2021/07/14 06:52:54;;;;;;;5.13;4.63;;;17.60;99.90;;;17.54;95.06;97654.28;5063156;28;20627;-69
2021/07/14 06:55:23;;;;;;;6.30;5.33;;;17.60;99.90;;;17.57;94.93;97656.63;5065072;28;20670;-70
2021/07/14 06:57:53;;;;;;;5.17;4.53;;;17.60;99.90;;;17.60;95.93;97659.75;5063067;28;20686;-70
2021/07/14 07:00:22;;;;;;;5.07;4.43;;;17.60;99.90;;;17.62;95.28;97651.69;5050499;28;20689;-69
2021/07/14 07:02:50;;;;;;;4.90;4.43;;;17.70;99.90;;;17.63;94.39;97651.53;5044122;28;20732;-70
2021/07/14 07:05:19;;;;;;;5.70;4.60;;;17.70;99.90;;;17.65;94.22;97661.91;5060128;28;20737;-76
2021/07/14 07:07:48;;;;;;;7.63;5.93;;;17.70;99.90;;;17.63;93.97;97658.63;5059302;28;20681;-68
2021/07/14 07:10:17;;;;;;;6.13;5.53;;;17.70;99.90;;;17.60;94.71;97662.41;5054462;28;20760;-68
2021/07/14 07:12:45;;;;;;;8.77;6.23;;;17.70;99.90;;;17.60;94.74;97658.94;5063362;28;21188;-67
2021/07/14 07:15:18;;;;;;;9.63;5.90;;;17.60;99.90;;;17.59;95.02;97671.31;5056528;28;21311;-67
2021/07/14 07:17:47;;;;;;;8.03;5.63;;;17.60;99.90;;;17.61;95.37;97666.69;5054708;28;20697;-69
2021/07/14 07:20:17;;;;;;;8.70;6.73;;;17.70;99.90;;;17.62;95.34;97671.00;5055180;28;20724;-69
2021/07/14 07:22:46;;;;;;;7.80;5.53;;;17.70;99.90;;;17.55;95.33;97667.31;5058908;28;20642;-67
2021/07/14 07:25:16;;;;;;;6.20;5.40;;;17.60;99.90;;;17.49;95.67;97675.88;5049655;28;20729;-66
2021/07/14 07:27:46;;;;;;;6.97;5.50;;;17.50;99.90;;;17.47;95.03;97675.22;5060804;28;20664;-68
2021/07/14 07:30:18;;;;;;;14.60;5.70;;;17.50;99.90;;;17.47;95.11;97677.84;5052419;28;20687;-67
2021/07/14 07:32:46;;;;;;;10.27;5.37;;;17.50;99.90;;;17.46;94.70;97680.63;5051372;28;21509;-67
2021/07/14 07:35:15;;;;;;;7.20;6.27;;;17.50;99.90;;;17.47;95.12;97685.75;5053245;28;20671;-68
2021/07/14 07:37:45;;;;;;;6.17;5.50;;;17.50;99.90;;;17.51;95.76;97671.28;5052820;28;20638;-68
2021/07/14 07:40:14;;;;;;;8.27;5.40;;;17.50;99.90;;;17.56;95.51;97669.00;5058073;28;20629;-68
2021/07/14 07:42:44;;;;;;;6.07;5.00;;;17.60;99.90;;;17.61;95.72;97679.06;5051921;28;20626;-68
2021/07/14 07:45:14;;;;;;;5.90;5.30;;;17.60;99.90;;;17.63;96.05;97680.53;5054041;28;21189;-68
2021/07/14 07:47:43;;;;;;;7.17;5.80;;;17.70;99.90;;;17.66;95.71;97690.78;5058040;28;20630;-69
2021/07/14 07:50:13;;;;;;;8.27;5.60;;;17.70;99.90;;;17.66;96.53;97706.59;5054748;28;21059;-68
2021/07/14 07:52:42;;;;;;;4.97;4.47;;;17.70;99.90;;;17.67;94.44;97710.91;5059176;28;20709;-68
2021/07/14 07:55:14;;;;;;;5.03;4.53;;;17.70;99.90;;;17.67;94.38;97715.38;5051095;28;20767;-69
2021/07/14 07:57:44;;;;;;;5.23;4.60;;;17.70;99.90;;;17.69;94.19;97722.13;5050082;28;20672;-68
2021/07/14 08:00:18;;;;;;;5.13;4.63;;;17.70;99.90;;;17.69;94.26;97711.56;5050468;28;20635;-68
2021/07/14 08:02:47;;;;;;;5.53;4.67;;;17.80;99.90;;;17.70;94.22;97713.22;5053127;28;20644;-68
2021/07/14 08:05:16;;;;;;;4.97;4.50;;;17.80;99.90;;;17.69;94.09;97701.03;5052986;28;21110;-68
2021/07/14 08:07:45;;;;;;;4.50;4.10;;;17.80;99.90;;;17.69;93.47;97700.19;5051977;28;21106;-68
2021/07/14 08:10:15;;;;;;;5.07;4.57;;;17.80;99.90;;;17.70;94.05;97700.03;5053693;28;20658;-68
2021/07/14 08:12:44;;;;;;;5.60;5.10;;;17.80;99.90;;;17.72;94.23;97700.69;5063981;28;20732;-68
2021/07/14 08:15:14;;;;;;;6.37;5.00;;;17.80;99.90;;;17.75;94.36;97707.47;5049737;28;20629;-68
2021/07/14 08:17:44;;;;;;;5.20;4.70;;;17.80;99.90;;;17.75;94.29;97699.56;5048398;28;20634;-68
2021/07/14 08:20:13;;;;;;;5.00;4.50;;;17.80;99.90;;;17.76;93.79;97702.06;5054780;28;20950;-69
2021/07/14 08:22:42;;;;;;;4.00;3.70;;;17.80;99.90;;;17.77;93.54;97713.41;5058219;28;20684;-70
2021/07/14 08:25:13;;;;;;;5.10;4.33;;;17.80;99.90;;;17.74;93.34;97705.81;5057714;28;20634;-69
2021/07/14 08:27:42;;;;;;;7.90;4.60;;;17.80;99.90;;;17.74;93.26;97716.38;5061089;28;20638;-66
2021/07/14 08:30:13;;;;;;;5.80;4.50;;;17.80;99.90;;;17.73;92.85;97723.47;5065623;28;20707;-68
2021/07/14 08:32:46;;;;;;;7.60;4.40;;;17.80;99.90;;;17.73;92.75;97722.66;5056376;28;20645;-66
2021/07/14 08:35:16;;;;;;;5.27;4.77;;;17.80;99.90;;;17.73;92.42;97733.22;5056384;28;20672;-66
2021/07/14 08:37:47;;;;;;;6.10;5.10;;;17.80;99.90;;;17.73;92.83;97738.50;5051977;28;20759;-66
2021/07/14 08:40:18;;;;;;;8.93;5.07;;;17.80;99.90;;;17.72;93.05;97740.28;5055910;28;20657;-71
2021/07/14 08:42:50;;;;;;;5.20;4.70;;;17.80;99.90;;;17.71;92.92;97730.72;5056544;28;20699;-66
2021/07/14 08:45:21;;;;;;;5.50;4.60;;;17.80;99.90;;;17.71;93.15;97725.44;5060553;28;21010;-67
2021/07/14 08:47:51;;;;;;;11.70;4.93;;;17.80;99.90;;;17.71;93.36;97730.72;5059800;28;20661;-69
2021/07/14 08:50:22;;;;;;;4.93;4.27;;;17.80;99.90;;;17.72;93.79;97726.28;5054349;28;20659;-68
2021/07/14 08:52:51;;;;;;;4.90;4.50;;;17.80;99.90;;;17.72;93.30;97729.72;5056184;28;21183;-67
2021/07/14 08:55:23;;;;;;;4.80;4.30;;;17.80;99.90;;;17.71;93.18;97714.91;5059330;28;20644;-67
2021/07/14 08:57:52;;;;;;;7.07;4.20;;;17.80;99.90;;;17.72;93.25;97721.00;5053183;28;20665;-67
2021/07/14 09:00:24;;;;;;;4.43;4.03;;;17.80;99.90;;;17.73;92.71;97722.66;5058213;28;20634;-67
2021/07/14 09:02:54;;;;;;;4.97;4.43;;;17.80;99.90;;;17.75;92.51;97721.50;5056019;28;20710;-68
2021/07/14 09:05:23;;;;;;;4.80;4.23;;;17.80;99.90;;;17.79;92.63;97736.03;5057098;28;21181;-68
2021/07/14 09:07:51;;;;;;;5.53;5.03;;;17.80;99.90;;;17.80;92.28;97740.34;5044267;28;20676;-68
2021/07/14 09:10:20;;;;;;;6.57;5.37;;;17.90;99.90;;;17.83;92.37;97742.66;5052544;28;20696;-67
2021/07/14 09:12:49;;;;;;;4.93;4.43;;;17.90;99.90;;;17.85;92.15;97747.78;5056449;28;20691;-67
2021/07/14 09:15:21;;;;;;;5.53;4.30;;;17.90;99.90;;;17.86;91.18;97754.69;5057176;28;20729;-67
2021/07/14 09:17:53;;;;;;;5.80;5.20;;;17.90;99.90;;;17.85;92.42;97751.25;5067996;28;20629;-67
2021/07/14 09:20:25;;;;;;;5.30;4.80;;;17.90;99.90;;;17.88;92.27;97753.56;5056094;28;20683;-67
2021/07/14 09:23:06;;;;;;;5.17;4.37;;;17.90;99.90;;;17.93;92.79;97749.44;5055189;28;20632;-67
2021/07/14 09:25:41;;;;;;;6.53;5.83;;;18.00;99.90;;;18.01;92.40;97741.59;5055750;28;20632;-69
2021/07/14 09:28:11;;;;;;;7.63;5.33;;;18.00;99.90;;;18.05;92.81;97734.16;5059641;28;22060;-68
2021/07/14 09:30:45;;;;;;;5.73;5.13;;;18.00;99.90;;;18.15;92.85;97740.19;5055738;28;20697;-67
2021/07/14 09:33:18;;;;;;;5.83;5.33;;;18.10;99.90;;;18.31;93.60;97746.34;5062723;28;20634;-68
2021/07/14 09:35:49;;;;;;;5.90;5.40;;;18.20;99.90;;;18.46;94.35;97748.22;5052220;28;20720;-68
2021/07/14 09:38:20;;;;;;;5.77;5.17;;;18.40;99.90;;;18.59;94.10;97740.63;5056900;28;20642;-68
2021/07/14 09:40:52;;;;;;;6.60;5.97;;;18.50;99.90;;;18.70;92.16;97736.84;5062295;28;20629;-68
2021/07/14 09:43:23;;;;;;;6.03;5.43;;;18.60;99.90;;;18.84;91.74;97734.41;5054175;28;20654;-67
2021/07/14 09:45:56;;;;;;;5.47;4.73;;;18.80;99.90;;;18.99;92.94;97736.22;5055262;28;20642;-67
2021/07/14 09:48:30;;;;;;;6.53;5.30;;;18.90;99.90;;;19.15;92.50;97735.41;5053794;28;20659;-67
2021/07/14 09:51:01;;;;;;;5.70;5.13;;;19.00;99.90;;;19.28;91.70;97759.56;5060582;28;20686;-68
2021/07/14 09:53:32;;;;;;;6.50;5.30;;;19.20;99.90;;;19.37;90.43;97746.97;5056366;28;20668;-68
2021/07/14 09:56:12;;;;;;;5.43;4.87;;;19.20;99.90;;;19.53;90.84;97748.75;5055750;28;20672;-67
2021/07/14 09:58:41;;;;;;;5.40;4.90;;;19.40;99.90;;;19.69;90.63;97754.84;5055316;28;20645;-67
2021/07/14 10:01:16;;;;;;;5.63;5.13;;;19.50;99.90;;;19.81;89.33;97756.13;5060347;28;20635;-68
2021/07/14 10:03:52;;;;;;;4.90;4.40;;;19.70;99.90;;;19.91;88.83;97759.47;5053665;28;20686;-67
2021/07/14 10:06:27;;;;;;;5.80;5.03;;;19.80;99.90;;;20.01;88.17;97757.44;5057797;28;20676;-67
2021/07/14 10:09:04;;;;;;;5.40;4.90;;;19.90;99.90;;;20.09;89.09;97757.44;5071150;28;20681;-67
2021/07/14 10:11:33;;;;;;;5.90;5.40;;;19.90;99.90;;;20.14;88.38;97755.91;5053014;28;20671;-67
2021/07/14 10:14:04;;;;;;;5.10;4.70;;;20.00;99.90;;;20.18;87.26;97753.75;5054444;28;20779;-67
2021/07/14 10:16:37;;;;;;;4.90;4.50;;;20.10;99.90;;;20.22;89.13;97755.03;5052779;28;20973;-66
2021/07/14 10:19:10;;;;;;;6.47;5.77;;;20.10;99.90;;;20.31;87.34;97761.97;5056724;28;20621;-68
2021/07/14 10:21:43;;;;;;;4.60;4.20;;;20.20;99.90;;;20.36;85.83;97757.81;5051575;28;20643;-67
2021/07/14 10:24:13;;;;;;;4.30;3.90;;;20.20;99.90;;;20.49;85.32;97766.84;5054828;28;20774;-67
2021/07/14 10:26:45;;;;;;;5.20;4.43;;;20.30;99.90;;;20.57;84.66;97768.63;5056085;28;20632;-67
2021/07/14 10:29:15;;;;;;;5.97;4.83;;;20.40;99.90;;;20.69;85.10;97776.03;5053032;28;21212;-68
2021/07/14 10:31:48;;;;;;;4.40;4.00;;;20.60;99.90;;;20.81;85.55;97775.47;5054366;28;21224;-67
2021/07/14 10:34:20;;;;;;;4.90;4.50;;;20.70;99.90;;;20.85;83.52;97776.78;5059483;28;20632;-68
2021/07/14 10:36:52;;;;;;;4.80;4.30;;;20.70;99.90;;;20.88;83.53;97783.53;5058064;28;20632;-68
2021/07/14 10:39:27;;;;;;;7.30;4.50;;;20.80;99.90;;;20.85;83.17;97782.06;5057519;28;20753;-67
2021/07/14 10:41:55;;;;;;;6.77;4.23;;;20.80;99.90;;;20.88;83.60;97783.53;5055332;28;20614;-67